Terminal Aerodrome Forecast
Issued by NWS

Home | Current Version | Previous Version | Text Only | Print | Product List | Glossary On
Versions: 1 2 3 4 5 6 7 8 9 10 11 12 13 14 15 16 17 18 19 20
000
FTUS43 KBIS 020200 AAA
TAFMOT
TAF AMD
KMOT 020242Z 0203/0224 28008KT P6SM BKN100
     FM020600 26007KT P6SM SCT160
     FM021600 24015G23KT P6SM BKN060
     FM021900 26018G26KT 5SM -SHRA BKN045
     FM022100 29022G30KT P6SM BKN040=

USA.gov is the U.S. government's official web portal to all federal, state and local government web resources and services.